Time;durP1;ratioP1;P1;durP2;ratioP2;P2;SDS_P1;SDS_P2;PMS_P1;PMS_P2;Temp;Humidity;BMP_temperature;BMP_pressure;BME280_temperature;BME280_humidity;BME280_pressure;Samples;Min_cycle;Max_cycle;Signal;HPM_P1;HPM_P2
2021/10/21 05:07:13;;;;;;;;;73.50;58.75;;;;;;;;6478896;39;14842;-62
2021/10/21 05:13:20;;;;;;;;;79.25;61.25;;;;;;;;6489893;47;8896;-61
2021/10/21 05:19:22;;;;;;;;;80.25;61.00;;;;;;;;6489893;46;9083;-60
2021/10/21 05:25:31;;;;;;;;;88.00;69.50;;;;;;;;6490278;31;8945;-60
2021/10/21 05:31:33;;;;;;;;;69.00;54.25;;;;;;;;6489799;47;8849;-60
2021/10/21 05:37:36;;;;;;;;;77.50;60.25;;;;;;;;6492967;39;9039;-60
2021/10/21 05:43:38;;;;;;;;;88.25;71.00;;;;;;;;6492205;31;8932;-60
2021/10/21 05:49:41;;;;;;;;;89.25;69.00;;;;;;;;6493301;39;9531;-61
2021/10/21 05:55:43;;;;;;;;;85.50;66.00;;;;;;;;6492933;39;8907;-60
2021/10/21 06:01:48;;;;;;;;;86.75;68.75;;;;;;;;6492693;31;9676;-61
2021/10/21 06:07:54;;;;;;;;;85.25;66.75;;;;;;;;6498122;36;8954;-60
2021/10/21 06:13:57;;;;;;;;;86.25;66.00;;;;;;;;6490688;46;8881;-58
2021/10/21 06:19:59;;;;;;;;;83.25;66.50;;;;;;;;6491856;31;8914;-59
2021/10/21 06:26:02;;;;;;;;;80.00;63.25;;;;;;;;6492408;39;8998;-60
2021/10/21 06:32:11;;;;;;;;;76.50;61.50;;;;;;;;6491844;39;8870;-60
2021/10/21 06:38:20;;;;;;;;;73.75;58.25;;;;;;;;6491869;39;8908;-61
2021/10/21 06:44:22;;;;;;;;;77.25;60.75;;;;;;;;6491231;31;8918;-62
2021/10/21 06:50:24;;;;;;;;;76.75;62.50;;;;;;;;6490317;39;8869;-60
2021/10/21 06:56:27;;;;;;;;;81.00;62.00;;;;;;;;6490052;31;9025;-61
2021/10/21 07:02:29;;;;;;;;;79.00;63.25;;;;;;;;6491928;31;8932;-60
2021/10/21 07:08:32;;;;;;;;;83.50;66.00;;;;;;;;6490606;31;8898;-60
2021/10/21 07:14:34;;;;;;;;;82.25;63.75;;;;;;;;6490967;31;8916;-60
2021/10/21 07:20:38;;;;;;;;;80.75;63.75;;;;;;;;6490839;31;8835;-60
2021/10/21 07:26:41;;;;;;;;;81.67;64.33;;;;;;;;6491712;39;8903;-61
2021/10/21 07:32:45;;;;;;;;;82.50;64.75;;;;;;;;6483796;39;9651;-62
2021/10/21 07:38:50;;;;;;;;;81.50;65.00;;;;;;;;6490799;31;8920;-60
2021/10/21 07:44:58;;;;;;;;;78.75;62.75;;;;;;;;6491601;31;8918;-60
2021/10/21 07:51:00;;;;;;;;;79.25;63.00;;;;;;;;6491111;39;8841;-60
2021/10/21 07:57:06;;;;;;;;;86.75;66.25;;;;;;;;6489479;31;9086;-62
2021/10/21 08:03:10;;;;;;;;;76.75;61.25;;;;;;;;6491095;31;8991;-61
2021/10/21 08:09:13;;;;;;;;;72.75;57.50;;;;;;;;6491116;39;8886;-61
2021/10/21 08:15:17;;;;;;;;;65.00;54.50;;;;;;;;6490510;39;9044;-61
2021/10/21 08:21:20;;;;;;;;;71.75;56.75;;;;;;;;6491226;39;9487;-60
2021/10/21 08:27:25;;;;;;;;;69.75;56.25;;;;;;;;6490350;39;8870;-60
2021/10/21 08:33:27;;;;;;;;;69.75;55.50;;;;;;;;6490811;31;8880;-60
2021/10/21 08:39:35;;;;;;;;;64.25;51.50;;;;;;;;6490414;31;8838;-60
2021/10/21 08:45:37;;;;;;;;;71.75;56.00;;;;;;;;6484712;39;8969;-62
2021/10/21 08:51:39;;;;;;;;;64.50;51.25;;;;;;;;6488336;39;8861;-60
2021/10/21 08:57:43;;;;;;;;;72.00;57.75;;;;;;;;6488934;47;8847;-62
2021/10/21 09:04:14;;;;;;;;;68.00;53.50;;;;;;;;6489321;39;8956;-61
2021/10/21 09:10:16;;;;;;;;;52.00;43.50;;;;;;;;6490787;31;8943;-62
2021/10/21 09:16:19;;;;;;;;;57.75;47.50;;;;;;;;6491592;31;8872;-63
2021/10/21 09:22:25;;;;;;;;;55.25;44.25;;;;;;;;6491389;46;8906;-60
2021/10/21 09:28:30;;;;;;;;;54.75;45.00;;;;;;;;6490586;39;8833;-61
2021/10/21 09:34:48;;;;;;;;;49.33;42.33;;;;;;;;6489293;31;8914;-63
2021/10/21 09:40:58;;;;;;;;;50.00;43.00;;;;;;;;6489380;31;8883;-62
2021/10/21 09:47:14;;;;;;;;;49.50;41.75;;;;;;;;6489330;39;8843;-61
2021/10/21 09:53:22;;;;;;;;;54.00;43.33;;;;;;;;6490410;31;8904;-61
2021/10/21 09:59:37;;;;;;;;;46.75;39.50;;;;;;;;6489458;39;9738;-61
2021/10/21 10:05:50;;;;;;;;;48.67;41.33;;;;;;;;6489309;31;8995;-62
2021/10/21 10:11:53;;;;;;;;;46.67;40.00;;;;;;;;6489223;46;8953;-62
2021/10/21 10:18:11;;;;;;;;;49.67;42.67;;;;;;;;6489490;31;9003;-60
2021/10/21 10:24:33;;;;;;;;;48.67;41.00;;;;;;;;6489612;39;9082;-61
2021/10/21 10:30:57;;;;;;;;;48.67;41.33;;;;;;;;6490297;31;8849;-62
2021/10/21 10:37:20;;;;;;;;;51.33;41.67;;;;;;;;6488962;46;8867;-60
2021/10/21 10:43:38;;;;;;;;;31.67;26.67;;;;;;;;6489074;39;8971;-61
2021/10/21 10:49:49;;;;;;;;;40.33;36.67;;;;;;;;6489578;39;8938;-61
2021/10/21 10:55:54;;;;;;;;;40.00;35.33;;;;;;;;6489379;31;8908;-61
2021/10/21 11:01:59;;;;;;;;;35.00;32.67;;;;;;;;6484938;31;8947;-61
2021/10/21 11:08:01;;;;;;;;;38.00;35.67;;;;;;;;6488903;39;8893;-61
2021/10/21 11:14:33;;;;;;;;;37.33;36.67;;;;;;;;6487887;39;8947;-60
2021/10/21 11:20:38;;;;;;;;;35.33;33.00;;;;;;;;6488008;39;8970;-60
2021/10/21 11:26:42;;;;;;;;;36.67;36.00;;;;;;;;6489343;31;9037;-60
2021/10/21 11:32:46;;;;;;;;;36.33;31.67;;;;;;;;6489287;39;8930;-62
2021/10/21 11:39:05;;;;;;;;;34.33;30.33;;;;;;;;6488434;31;8871;-61
2021/10/21 11:45:09;;;;;;;;;29.67;26.67;;;;;;;;6488443;31;9014;-61
2021/10/21 11:51:13;;;;;;;;;34.67;32.67;;;;;;;;6488655;39;9013;-61
2021/10/21 11:57:34;;;;;;;;;37.67;33.33;;;;;;;;6487707;39;9660;-59
2021/10/21 12:03:43;;;;;;;;;38.67;34.33;;;;;;;;6488047;39;9116;-59
2021/10/21 12:09:45;;;;;;;;;32.00;29.33;;;;;;;;6488216;46;8904;-62
2021/10/21 12:15:52;;;;;;;;;33.33;31.67;;;;;;;;6488993;46;8927;-61
2021/10/21 12:22:13;;;;;;;;;28.33;25.00;;;;;;;;6488088;39;10140;-62
2021/10/21 12:28:19;;;;;;;;;34.67;29.33;;;;;;;;6488828;31;8862;-61
2021/10/21 12:34:24;;;;;;;;;37.00;30.67;;;;;;;;6487373;31;8912;-62
2021/10/21 12:40:35;;;;;;;;;41.67;33.33;;;;;;;;6487929;39;8901;-59
2021/10/21 12:46:39;;;;;;;;;37.67;33.33;;;;;;;;6487365;46;8869;-61
2021/10/21 12:52:45;;;;;;;;;36.00;33.33;;;;;;;;6488920;31;8919;-61
2021/10/21 12:58:57;;;;;;;;;32.33;29.33;;;;;;;;6488935;46;8869;-60
2021/10/21 13:05:01;;;;;;;;;38.00;34.67;;;;;;;;6487943;39;8956;-61
2021/10/21 13:11:07;;;;;;;;;26.67;24.33;;;;;;;;6486646;39;8913;-61
2021/10/21 13:17:17;;;;;;;;;34.33;30.67;;;;;;;;6488086;39;9002;-61
2021/10/21 13:23:19;;;;;;;;;27.33;26.00;;;;;;;;6487600;39;8904;-60
2021/10/21 13:29:23;;;;;;;;;37.67;32.67;;;;;;;;6487513;39;9488;-60
2021/10/21 13:35:26;;;;;;;;;34.67;33.67;;;;;;;;6487321;47;8938;-60
2021/10/21 13:41:29;;;;;;;;;34.33;33.00;;;;;;;;6487022;31;8862;-61
2021/10/21 13:47:37;;;;;;;;;38.33;33.00;;;;;;;;6487653;39;8861;-62
2021/10/21 13:53:43;;;;;;;;;34.00;32.67;;;;;;;;6485858;39;8954;-61
2021/10/21 13:59:46;;;;;;;;;30.33;30.33;;;;;;;;6488426;39;9126;-61
2021/10/21 14:05:49;;;;;;;;;54.00;42.33;;;;;;;;6489264;39;8999;-62
2021/10/21 14:11:52;;;;;;;;;38.00;33.67;;;;;;;;6489344;46;8954;-63
2021/10/21 14:17:55;;;;;;;;;40.33;36.00;;;;;;;;6489782;39;8970;-60
2021/10/21 14:23:58;;;;;;;;;44.67;39.00;;;;;;;;6489898;39;8912;-62
2021/10/21 14:30:03;;;;;;;;;36.00;34.67;;;;;;;;6488853;31;8847;-62
2021/10/21 14:36:06;;;;;;;;;37.67;33.67;;;;;;;;6488569;31;8992;-61
2021/10/21 14:42:10;;;;;;;;;39.00;36.33;;;;;;;;6489201;46;8863;-62
2021/10/21 14:48:15;;;;;;;;;41.33;38.00;;;;;;;;6488976;31;8968;-62
2021/10/21 14:54:18;;;;;;;;;42.00;37.00;;;;;;;;6488906;31;8906;-61
2021/10/21 15:00:21;;;;;;;;;40.00;36.33;;;;;;;;6489437;46;8902;-61
2021/10/21 15:25:29;;;;;;;;;34.67;34.33;;;;;;;;6489029;46;8904;-61
2021/10/21 15:31:33;;;;;;;;;50.33;42.00;;;;;;;;6488547;39;8957;-63
2021/10/21 15:37:37;;;;;;;;;40.67;38.00;;;;;;;;6488704;39;8849;-62
2021/10/21 15:43:42;;;;;;;;;40.50;37.00;;;;;;;;6488975;39;8890;-61
2021/10/21 16:15:40;;;;;;;;;53.25;43.00;;;;;;;;6487799;39;8882;-62
2021/10/21 16:21:47;;;;;;;;;53.75;42.25;;;;;;;;6487129;39;8843;-62
2021/10/21 16:27:50;;;;;;;;;44.25;40.00;;;;;;;;6487025;39;8925;-61
2021/10/21 16:33:54;;;;;;;;;52.50;44.00;;;;;;;;6487868;46;8897;-61
2021/10/21 16:39:59;;;;;;;;;50.00;43.00;;;;;;;;6488525;39;8882;-61
2021/10/21 16:46:01;;;;;;;;;58.75;45.00;;;;;;;;6486828;39;9672;-61
2021/10/21 16:52:09;;;;;;;;;63.00;50.50;;;;;;;;6487795;39;8932;-62
2021/10/21 16:58:11;;;;;;;;;64.00;52.75;;;;;;;;6488390;39;8860;-62
2021/10/21 17:04:13;;;;;;;;;56.00;47.25;;;;;;;;6487947;47;8954;-61
2021/10/21 17:10:16;;;;;;;;;56.25;47.50;;;;;;;;6488529;39;8847;-63
2021/10/21 17:16:19;;;;;;;;;49.75;42.25;;;;;;;;6487234;39;8894;-61
2021/10/21 17:22:22;;;;;;;;;55.75;43.00;;;;;;;;6488033;39;8905;-61
2021/10/21 17:28:29;;;;;;;;;51.75;43.25;;;;;;;;6487517;31;8924;-61
2021/10/21 17:34:34;;;;;;;;;52.25;42.50;;;;;;;;6489392;31;8855;-61
2021/10/21 17:40:40;;;;;;;;;55.75;44.50;;;;;;;;6490779;31;9517;-62
2021/10/21 17:46:44;;;;;;;;;54.00;45.50;;;;;;;;6489114;31;8886;-60
2021/10/21 17:52:47;;;;;;;;;57.25;48.50;;;;;;;;6489162;39;8866;-61
2021/10/21 17:58:49;;;;;;;;;57.75;47.50;;;;;;;;6488878;31;8898;-61
2021/10/21 18:04:51;;;;;;;;;60.50;47.25;;;;;;;;6487962;31;8945;-61
2021/10/21 18:10:54;;;;;;;;;57.75;49.25;;;;;;;;6489174;39;8855;-62
2021/10/21 18:16:56;;;;;;;;;55.50;47.25;;;;;;;;6489382;39;8872;-60
2021/10/21 18:23:01;;;;;;;;;60.25;50.75;;;;;;;;6490115;39;10072;-61
2021/10/21 18:29:05;;;;;;;;;61.25;49.00;;;;;;;;6488905;46;8944;-61
2021/10/21 18:35:08;;;;;;;;;55.75;47.50;;;;;;;;6488806;39;9494;-61
2021/10/21 18:41:11;;;;;;;;;61.75;49.50;;;;;;;;6488927;39;8877;-60
2021/10/21 18:47:21;;;;;;;;;61.25;50.25;;;;;;;;6489253;31;8899;-63
2021/10/21 18:53:27;;;;;;;;;58.50;45.50;;;;;;;;6489065;31;8861;-62
2021/10/21 18:59:29;;;;;;;;;61.00;49.50;;;;;;;;6488444;39;8937;-62
2021/10/21 19:05:33;;;;;;;;;63.25;51.25;;;;;;;;6488285;31;8991;-62
2021/10/21 19:11:38;;;;;;;;;59.50;48.00;;;;;;;;6488490;46;8887;-62
2021/10/21 19:17:41;;;;;;;;;58.00;49.00;;;;;;;;6489706;31;9583;-61
2021/10/21 19:23:44;;;;;;;;;59.25;48.50;;;;;;;;6488966;31;9007;-61
2021/10/21 19:29:49;;;;;;;;;59.50;49.00;;;;;;;;6487073;39;8897;-60
2021/10/21 19:35:58;;;;;;;;;62.50;49.75;;;;;;;;6489129;31;9585;-61
2021/10/21 19:42:00;;;;;;;;;58.50;48.00;;;;;;;;6488275;39;8850;-61
2021/10/21 19:48:04;;;;;;;;;60.50;49.25;;;;;;;;6487957;46;8907;-60
2021/10/21 19:54:09;;;;;;;;;59.75;49.25;;;;;;;;6488805;39;8893;-61
2021/10/21 20:00:13;;;;;;;;;63.00;48.50;;;;;;;;6487944;39;9117;-60
2021/10/21 20:06:16;;;;;;;;;62.75;51.75;;;;;;;;6488047;46;8916;-62
2021/10/21 20:12:19;;;;;;;;;62.75;49.75;;;;;;;;6488597;39;8870;-61
2021/10/21 20:18:22;;;;;;;;;63.25;48.75;;;;;;;;6488475;39;8880;-61
2021/10/21 20:24:25;;;;;;;;;65.75;54.00;;;;;;;;6488597;39;8902;-61
2021/10/21 20:30:29;;;;;;;;;67.00;52.75;;;;;;;;6488323;31;8853;-62
2021/10/21 20:36:35;;;;;;;;;64.75;53.50;;;;;;;;6488103;31;8933;-61
2021/10/21 20:42:39;;;;;;;;;63.25;51.00;;;;;;;;6487806;31;8928;-61
2021/10/21 20:48:44;;;;;;;;;65.50;53.50;;;;;;;;6487549;46;8874;-60
2021/10/21 20:54:47;;;;;;;;;70.75;55.50;;;;;;;;6486918;31;8955;-60
2021/10/21 21:00:50;;;;;;;;;67.75;53.50;;;;;;;;6486956;39;8902;-63
2021/10/21 21:06:52;;;;;;;;;69.00;56.00;;;;;;;;6487741;31;8918;-61
2021/10/21 21:12:58;;;;;;;;;66.75;54.25;;;;;;;;6488128;31;8876;-61
2021/10/21 21:19:01;;;;;;;;;66.00;53.75;;;;;;;;6487893;31;8910;-61
2021/10/21 21:25:06;;;;;;;;;69.75;54.25;;;;;;;;6487533;39;8861;-62
2021/10/21 21:31:08;;;;;;;;;60.50;50.75;;;;;;;;6487361;31;8859;-60
2021/10/21 21:37:11;;;;;;;;;70.25;55.50;;;;;;;;6487226;46;8872;-60
2021/10/21 21:43:16;;;;;;;;;71.00;55.75;;;;;;;;6488293;31;8901;-62
2021/10/21 21:49:18;;;;;;;;;73.00;56.50;;;;;;;;6486572;39;8848;-61
2021/10/21 21:55:23;;;;;;;;;69.50;53.75;;;;;;;;6486922;39;8865;-61
2021/10/21 22:01:28;;;;;;;;;72.75;57.50;;;;;;;;6486552;31;8944;-61
2021/10/21 22:07:32;;;;;;;;;62.25;52.50;;;;;;;;6487277;31;8993;-60
2021/10/21 22:13:42;;;;;;;;;72.50;59.00;;;;;;;;6486656;47;8864;-61
2021/10/21 22:19:51;;;;;;;;;69.50;58.25;;;;;;;;6488076;46;8839;-60
2021/10/21 22:25:58;;;;;;;;;74.75;59.50;;;;;;;;6488906;46;8897;-61
2021/10/21 22:32:02;;;;;;;;;76.00;58.50;;;;;;;;6488505;39;8929;-60
2021/10/21 22:38:06;;;;;;;;;72.75;59.00;;;;;;;;6489109;46;8882;-60
2021/10/21 22:44:12;;;;;;;;;76.75;59.00;;;;;;;;6488503;39;8914;-61
2021/10/21 22:50:15;;;;;;;;;74.75;58.50;;;;;;;;6489158;46;8864;-60
2021/10/21 22:56:18;;;;;;;;;77.75;60.25;;;;;;;;6489958;31;8869;-59
2021/10/21 23:02:25;;;;;;;;;84.75;64.50;;;;;;;;6488825;46;8934;-61
2021/10/21 23:08:28;;;;;;;;;76.75;58.25;;;;;;;;6489313;31;8855;-61
2021/10/21 23:14:39;;;;;;;;;73.75;60.75;;;;;;;;6488571;39;8846;-61
2021/10/21 23:20:41;;;;;;;;;74.25;58.00;;;;;;;;6488088;39;8886;-61
2021/10/21 23:26:47;;;;;;;;;73.75;59.25;;;;;;;;6488905;46;8896;-60
2021/10/21 23:32:49;;;;;;;;;75.25;58.75;;;;;;;;6487318;46;8851;-61
2021/10/21 23:38:52;;;;;;;;;75.25;59.00;;;;;;;;6488409;31;8896;-61
2021/10/21 23:44:56;;;;;;;;;73.75;60.00;;;;;;;;6488253;39;8953;-60
2021/10/21 23:50:58;;;;;;;;;78.25;59.50;;;;;;;;6487594;46;8922;-60
2021/10/21 23:57:01;;;;;;;;;81.25;63.25;;;;;;;;6487696;39;8929;-61
